sensor_id;sensor_type;location;lat;lon;timestamp;P1;durP1;ratioP1;P2;durP2;ratioP2
6785;SDS011;3430;51.192;6.048;2022-10-16T00:00:40;2.53;;;2.33;;
6785;SDS011;3430;51.192;6.048;2022-10-16T00:03:06;5.03;;;2.40;;
6785;SDS011;3430;51.192;6.048;2022-10-16T00:05:32;2.60;;;2.40;;
6785;SDS011;3430;51.192;6.048;2022-10-16T00:07:58;3.27;;;2.67;;
6785;SDS011;3430;51.192;6.048;2022-10-16T00:10:24;3.40;;;2.47;;
6785;SDS011;3430;51.192;6.048;2022-10-16T00:12:49;3.97;;;2.33;;
6785;SDS011;3430;51.192;6.048;2022-10-16T00:15:15;2.90;;;2.50;;
6785;SDS011;3430;51.192;6.048;2022-10-16T00:17:43;4.23;;;2.10;;
6785;SDS011;3430;51.192;6.048;2022-10-16T00:20:11;2.40;;;2.20;;
6785;SDS011;3430;51.192;6.048;2022-10-16T00:22:38;4.47;;;2.50;;
6785;SDS011;3430;51.192;6.048;2022-10-16T00:25:05;5.57;;;2.60;;
6785;SDS011;3430;51.192;6.048;2022-10-16T00:27:34;3.10;;;2.30;;
6785;SDS011;3430;51.192;6.048;2022-10-16T00:30:00;2.60;;;2.40;;
6785;SDS011;3430;51.192;6.048;2022-10-16T00:32:25;2.97;;;2.07;;
6785;SDS011;3430;51.192;6.048;2022-10-16T00:34:56;5.77;;;2.53;;
6785;SDS011;3430;51.192;6.048;2022-10-16T00:37:21;2.67;;;2.47;;
6785;SDS011;3430;51.192;6.048;2022-10-16T00:39:55;5.57;;;2.47;;
6785;SDS011;3430;51.192;6.048;2022-10-16T00:42:21;2.97;;;2.10;;
6785;SDS011;3430;51.192;6.048;2022-10-16T00:44:48;2.90;;;2.33;;
6785;SDS011;3430;51.192;6.048;2022-10-16T00:50:16;3.57;;;2.43;;
6785;SDS011;3430;51.192;6.048;2022-10-16T00:52:44;2.50;;;2.30;;
6785;SDS011;3430;51.192;6.048;2022-10-16T00:55:11;3.57;;;2.50;;
6785;SDS011;3430;51.192;6.048;2022-10-16T00:57:42;2.23;;;2.00;;
6785;SDS011;3430;51.192;6.048;2022-10-16T01:00:09;4.73;;;2.00;;
6785;SDS011;3430;51.192;6.048;2022-10-16T01:02:41;2.33;;;2.13;;
6785;SDS011;3430;51.192;6.048;2022-10-16T01:05:09;3.33;;;2.50;;
6785;SDS011;3430;51.192;6.048;2022-10-16T01:13:14;3.20;;;2.60;;
6785;SDS011;3430;51.192;6.048;2022-10-16T01:15:52;2.63;;;2.43;;
6785;SDS011;3430;51.192;6.048;2022-10-16T01:20:51;3.10;;;2.60;;
6785;SDS011;3430;51.192;6.048;2022-10-16T01:31:09;2.40;;;2.20;;
6785;SDS011;3430;51.192;6.048;2022-10-16T01:33:39;3.57;;;2.47;;
6785;SDS011;3430;51.192;6.048;2022-10-16T01:36:14;3.20;;;2.03;;
6785;SDS011;3430;51.192;6.048;2022-10-16T01:38:41;2.63;;;2.00;;
6785;SDS011;3430;51.192;6.048;2022-10-16T01:41:23;2.40;;;2.00;;
6785;SDS011;3430;51.192;6.048;2022-10-16T01:44:00;4.10;;;2.50;;
6785;SDS011;3430;51.192;6.048;2022-10-16T01:46:27;3.73;;;2.70;;
6785;SDS011;3430;51.192;6.048;2022-10-16T01:48:53;2.43;;;1.93;;
6785;SDS011;3430;51.192;6.048;2022-10-16T01:51:22;2.53;;;2.20;;
6785;SDS011;3430;51.192;6.048;2022-10-16T01:53:49;2.80;;;2.27;;
6785;SDS011;3430;51.192;6.048;2022-10-16T01:56:17;2.20;;;2.00;;
6785;SDS011;3430;51.192;6.048;2022-10-16T01:58:47;2.67;;;2.20;;
6785;SDS011;3430;51.192;6.048;2022-10-16T02:01:16;2.07;;;1.80;;
6785;SDS011;3430;51.192;6.048;2022-10-16T02:03:45;6.00;;;2.30;;
6785;SDS011;3430;51.192;6.048;2022-10-16T02:06:12;2.57;;;2.20;;
6785;SDS011;3430;51.192;6.048;2022-10-16T02:08:38;2.20;;;2.00;;
6785;SDS011;3430;51.192;6.048;2022-10-16T02:11:07;2.50;;;2.03;;
6785;SDS011;3430;51.192;6.048;2022-10-16T02:13:55;5.17;;;2.10;;
6785;SDS011;3430;51.192;6.048;2022-10-16T02:16:19;2.43;;;2.23;;
6785;SDS011;3430;51.192;6.048;2022-10-16T02:18:44;2.03;;;1.83;;
6785;SDS011;3430;51.192;6.048;2022-10-16T02:21:14;2.10;;;1.90;;
6785;SDS011;3430;51.192;6.048;2022-10-16T02:26:08;3.20;;;2.03;;
6785;SDS011;3430;51.192;6.048;2022-10-16T02:28:42;2.23;;;1.73;;
6785;SDS011;3430;51.192;6.048;2022-10-16T02:31:11;1.63;;;1.53;;
6785;SDS011;3430;51.192;6.048;2022-10-16T02:33:44;2.13;;;1.80;;
6785;SDS011;3430;51.192;6.048;2022-10-16T02:36:11;2.03;;;1.80;;
6785;SDS011;3430;51.192;6.048;2022-10-16T02:38:37;1.80;;;1.70;;
6785;SDS011;3430;51.192;6.048;2022-10-16T02:41:04;2.17;;;1.97;;
6785;SDS011;3430;51.192;6.048;2022-10-16T02:43:30;2.23;;;1.90;;
6785;SDS011;3430;51.192;6.048;2022-10-16T02:45:55;2.17;;;1.93;;
6785;SDS011;3430;51.192;6.048;2022-10-16T02:48:21;2.90;;;1.90;;
6785;SDS011;3430;51.192;6.048;2022-10-16T02:50:46;1.83;;;1.50;;
6785;SDS011;3430;51.192;6.048;2022-10-16T02:53:12;2.70;;;1.90;;
6785;SDS011;3430;51.192;6.048;2022-10-16T02:55:37;2.17;;;1.97;;
6785;SDS011;3430;51.192;6.048;2022-10-16T02:58:03;1.83;;;1.73;;
6785;SDS011;3430;51.192;6.048;2022-10-16T03:00:28;3.00;;;1.90;;
6785;SDS011;3430;51.192;6.048;2022-10-16T03:02:57;3.43;;;2.00;;
6785;SDS011;3430;51.192;6.048;2022-10-16T03:05:25;2.13;;;1.90;;
6785;SDS011;3430;51.192;6.048;2022-10-16T03:07:51;2.07;;;1.70;;
6785;SDS011;3430;51.192;6.048;2022-10-16T03:10:17;1.93;;;1.83;;
6785;SDS011;3430;51.192;6.048;2022-10-16T03:12:43;3.20;;;1.67;;
6785;SDS011;3430;51.192;6.048;2022-10-16T03:15:09;3.53;;;1.60;;
6785;SDS011;3430;51.192;6.048;2022-10-16T03:17:35;1.80;;;1.70;;
6785;SDS011;3430;51.192;6.048;2022-10-16T03:20:00;2.23;;;1.70;;
6785;SDS011;3430;51.192;6.048;2022-10-16T03:22:28;1.93;;;1.83;;
6785;SDS011;3430;51.192;6.048;2022-10-16T03:24:54;3.37;;;1.67;;
6785;SDS011;3430;51.192;6.048;2022-10-16T03:27:19;1.93;;;1.83;;
6785;SDS011;3430;51.192;6.048;2022-10-16T03:29:45;2.37;;;2.00;;
6785;SDS011;3430;51.192;6.048;2022-10-16T03:32:10;6.80;;;2.10;;
6785;SDS011;3430;51.192;6.048;2022-10-16T03:34:36;1.90;;;1.60;;
6785;SDS011;3430;51.192;6.048;2022-10-16T03:37:02;1.70;;;1.60;;
6785;SDS011;3430;51.192;6.048;2022-10-16T03:39:29;2.50;;;2.10;;
6785;SDS011;3430;51.192;6.048;2022-10-16T03:41:55;3.30;;;1.80;;
6785;SDS011;3430;51.192;6.048;2022-10-16T03:44:20;2.23;;;1.60;;
6785;SDS011;3430;51.192;6.048;2022-10-16T03:46:46;1.73;;;1.63;;
6785;SDS011;3430;51.192;6.048;2022-10-16T03:49:12;2.70;;;1.83;;
6785;SDS011;3430;51.192;6.048;2022-10-16T03:51:37;1.57;;;1.47;;
6785;SDS011;3430;51.192;6.048;2022-10-16T03:54:03;1.83;;;1.70;;
6785;SDS011;3430;51.192;6.048;2022-10-16T03:56:28;2.17;;;1.70;;
6785;SDS011;3430;51.192;6.048;2022-10-16T03:58:54;1.83;;;1.73;;
6785;SDS011;3430;51.192;6.048;2022-10-16T04:01:19;2.23;;;1.80;;
6785;SDS011;3430;51.192;6.048;2022-10-16T04:03:45;2.23;;;1.90;;
6785;SDS011;3430;51.192;6.048;2022-10-16T04:06:10;2.57;;;1.73;;
6785;SDS011;3430;51.192;6.048;2022-10-16T04:08:36;3.37;;;1.70;;
6785;SDS011;3430;51.192;6.048;2022-10-16T04:11:02;2.20;;;2.00;;
6785;SDS011;3430;51.192;6.048;2022-10-16T04:13:27;1.77;;;1.67;;
6785;SDS011;3430;51.192;6.048;2022-10-16T04:15:52;2.10;;;1.67;;
6785;SDS011;3430;51.192;6.048;2022-10-16T04:18:18;2.40;;;1.70;;
6785;SDS011;3430;51.192;6.048;2022-10-16T04:20:43;2.40;;;1.77;;
6785;SDS011;3430;51.192;6.048;2022-10-16T04:23:09;6.43;;;2.30;;
6785;SDS011;3430;51.192;6.048;2022-10-16T04:25:34;1.70;;;1.60;;
6785;SDS011;3430;51.192;6.048;2022-10-16T04:27:59;1.73;;;1.63;;
6785;SDS011;3430;51.192;6.048;2022-10-16T04:30:25;1.50;;;1.40;;
6785;SDS011;3430;51.192;6.048;2022-10-16T04:32:51;1.50;;;1.40;;
6785;SDS011;3430;51.192;6.048;2022-10-16T04:35:17;1.93;;;1.70;;
6785;SDS011;3430;51.192;6.048;2022-10-16T04:37:43;1.57;;;1.47;;
6785;SDS011;3430;51.192;6.048;2022-10-16T04:40:09;1.87;;;1.70;;
6785;SDS011;3430;51.192;6.048;2022-10-16T04:42:34;1.77;;;1.67;;
6785;SDS011;3430;51.192;6.048;2022-10-16T04:45:00;1.40;;;1.30;;
6785;SDS011;3430;51.192;6.048;2022-10-16T04:47:25;1.70;;;1.60;;
6785;SDS011;3430;51.192;6.048;2022-10-16T04:49:50;2.00;;;1.90;;
6785;SDS011;3430;51.192;6.048;2022-10-16T04:52:16;2.93;;;1.60;;
6785;SDS011;3430;51.192;6.048;2022-10-16T04:54:42;1.57;;;1.47;;
6785;SDS011;3430;51.192;6.048;2022-10-16T04:57:10;1.70;;;1.60;;
6785;SDS011;3430;51.192;6.048;2022-10-16T04:59:35;1.70;;;1.60;;
6785;SDS011;3430;51.192;6.048;2022-10-16T05:02:01;1.97;;;1.70;;
6785;SDS011;3430;51.192;6.048;2022-10-16T05:04:26;1.83;;;1.60;;
6785;SDS011;3430;51.192;6.048;2022-10-16T05:06:51;3.67;;;1.70;;
6785;SDS011;3430;51.192;6.048;2022-10-16T05:09:17;1.50;;;1.40;;
6785;SDS011;3430;51.192;6.048;2022-10-16T05:11:42;5.73;;;2.03;;
6785;SDS011;3430;51.192;6.048;2022-10-16T05:14:08;1.53;;;1.43;;
6785;SDS011;3430;51.192;6.048;2022-10-16T05:16:33;1.60;;;1.50;;
6785;SDS011;3430;51.192;6.048;2022-10-16T05:18:59;2.27;;;1.60;;
6785;SDS011;3430;51.192;6.048;2022-10-16T05:21:24;1.70;;;1.60;;
6785;SDS011;3430;51.192;6.048;2022-10-16T05:23:50;2.07;;;1.63;;
6785;SDS011;3430;51.192;6.048;2022-10-16T05:26:16;2.03;;;1.70;;
6785;SDS011;3430;51.192;6.048;2022-10-16T05:28:41;2.07;;;1.70;;
6785;SDS011;3430;51.192;6.048;2022-10-16T05:31:07;1.90;;;1.80;;
6785;SDS011;3430;51.192;6.048;2022-10-16T05:33:33;1.93;;;1.70;;
6785;SDS011;3430;51.192;6.048;2022-10-16T05:36:02;1.83;;;1.47;;
6785;SDS011;3430;51.192;6.048;2022-10-16T05:38:28;3.10;;;2.17;;
6785;SDS011;3430;51.192;6.048;2022-10-16T05:40:53;2.43;;;1.30;;
6785;SDS011;3430;51.192;6.048;2022-10-16T05:43:19;3.07;;;1.60;;
6785;SDS011;3430;51.192;6.048;2022-10-16T05:45:45;1.50;;;1.40;;
6785;SDS011;3430;51.192;6.048;2022-10-16T05:48:18;1.60;;;1.50;;
6785;SDS011;3430;51.192;6.048;2022-10-16T05:50:44;1.63;;;1.50;;
6785;SDS011;3430;51.192;6.048;2022-10-16T05:53:09;1.97;;;1.63;;
6785;SDS011;3430;51.192;6.048;2022-10-16T05:55:34;1.70;;;1.60;;
6785;SDS011;3430;51.192;6.048;2022-10-16T05:58:03;1.57;;;1.47;;
6785;SDS011;3430;51.192;6.048;2022-10-16T06:00:28;1.60;;;1.50;;
6785;SDS011;3430;51.192;6.048;2022-10-16T06:02:54;1.87;;;1.60;;
6785;SDS011;3430;51.192;6.048;2022-10-16T06:05:19;1.50;;;1.40;;
6785;SDS011;3430;51.192;6.048;2022-10-16T06:07:44;1.60;;;1.30;;
6785;SDS011;3430;51.192;6.048;2022-10-16T06:10:10;1.40;;;1.30;;
6785;SDS011;3430;51.192;6.048;2022-10-16T06:12:35;1.60;;;1.50;;
6785;SDS011;3430;51.192;6.048;2022-10-16T06:15:00;2.87;;;1.60;;
6785;SDS011;3430;51.192;6.048;2022-10-16T06:17:26;3.60;;;1.50;;
6785;SDS011;3430;51.192;6.048;2022-10-16T06:19:51;1.57;;;1.47;;
6785;SDS011;3430;51.192;6.048;2022-10-16T06:22:17;1.77;;;1.40;;
6785;SDS011;3430;51.192;6.048;2022-10-16T06:24:42;1.50;;;1.40;;
6785;SDS011;3430;51.192;6.048;2022-10-16T06:27:08;1.87;;;1.70;;
6785;SDS011;3430;51.192;6.048;2022-10-16T06:29:33;3.83;;;1.60;;
6785;SDS011;3430;51.192;6.048;2022-10-16T06:31:59;1.83;;;1.73;;
6785;SDS011;3430;51.192;6.048;2022-10-16T06:34:24;2.87;;;1.50;;
6785;SDS011;3430;51.192;6.048;2022-10-16T06:36:50;2.53;;;1.50;;
6785;SDS011;3430;51.192;6.048;2022-10-16T06:39:15;1.73;;;1.63;;
6785;SDS011;3430;51.192;6.048;2022-10-16T06:41:40;1.80;;;1.70;;
6785;SDS011;3430;51.192;6.048;2022-10-16T06:44:06;1.93;;;1.63;;
6785;SDS011;3430;51.192;6.048;2022-10-16T06:46:32;1.60;;;1.50;;
6785;SDS011;3430;51.192;6.048;2022-10-16T06:48:58;1.60;;;1.50;;
6785;SDS011;3430;51.192;6.048;2022-10-16T06:51:24;2.73;;;1.60;;
6785;SDS011;3430;51.192;6.048;2022-10-16T06:53:51;2.70;;;1.60;;
6785;SDS011;3430;51.192;6.048;2022-10-16T06:56:18;3.27;;;1.70;;
6785;SDS011;3430;51.192;6.048;2022-10-16T06:58:44;4.27;;;1.67;;
6785;SDS011;3430;51.192;6.048;2022-10-16T07:01:10;4.33;;;1.77;;
6785;SDS011;3430;51.192;6.048;2022-10-16T07:03:36;1.80;;;1.70;;
6785;SDS011;3430;51.192;6.048;2022-10-16T07:06:03;1.97;;;1.70;;
6785;SDS011;3430;51.192;6.048;2022-10-16T07:08:32;1.60;;;1.50;;
6785;SDS011;3430;51.192;6.048;2022-10-16T07:10:59;1.97;;;1.63;;
6785;SDS011;3430;51.192;6.048;2022-10-16T07:13:25;1.87;;;1.47;;
6785;SDS011;3430;51.192;6.048;2022-10-16T07:15:50;1.67;;;1.50;;
6785;SDS011;3430;51.192;6.048;2022-10-16T07:18:16;2.57;;;1.80;;
6785;SDS011;3430;51.192;6.048;2022-10-16T07:20:41;3.97;;;1.73;;
6785;SDS011;3430;51.192;6.048;2022-10-16T07:23:06;2.17;;;1.70;;
6785;SDS011;3430;51.192;6.048;2022-10-16T07:25:32;2.40;;;1.50;;
6785;SDS011;3430;51.192;6.048;2022-10-16T07:27:57;2.43;;;1.67;;
6785;SDS011;3430;51.192;6.048;2022-10-16T07:30:24;3.30;;;1.70;;
6785;SDS011;3430;51.192;6.048;2022-10-16T07:32:53;2.13;;;1.70;;
6785;SDS011;3430;51.192;6.048;2022-10-16T07:35:18;3.43;;;1.50;;
6785;SDS011;3430;51.192;6.048;2022-10-16T07:37:46;2.03;;;1.83;;
6785;SDS011;3430;51.192;6.048;2022-10-16T07:40:12;3.97;;;1.83;;
6785;SDS011;3430;51.192;6.048;2022-10-16T07:42:38;3.13;;;1.83;;
6785;SDS011;3430;51.192;6.048;2022-10-16T07:45:03;2.87;;;1.80;;
6785;SDS011;3430;51.192;6.048;2022-10-16T07:47:32;1.77;;;1.57;;
6785;SDS011;3430;51.192;6.048;2022-10-16T07:50:05;2.27;;;1.80;;
6785;SDS011;3430;51.192;6.048;2022-10-16T07:52:31;1.63;;;1.53;;
6785;SDS011;3430;51.192;6.048;2022-10-16T07:54:56;3.33;;;1.53;;
6785;SDS011;3430;51.192;6.048;2022-10-16T07:57:22;3.70;;;1.90;;
6785;SDS011;3430;51.192;6.048;2022-10-16T07:59:47;4.07;;;1.93;;
6785;SDS011;3430;51.192;6.048;2022-10-16T08:02:21;1.50;;;1.40;;
6785;SDS011;3430;51.192;6.048;2022-10-16T08:04:46;4.33;;;1.80;;
6785;SDS011;3430;51.192;6.048;2022-10-16T08:07:12;2.70;;;1.73;;
6785;SDS011;3430;51.192;6.048;2022-10-16T08:09:38;2.60;;;1.80;;
6785;SDS011;3430;51.192;6.048;2022-10-16T08:12:04;4.80;;;1.60;;
6785;SDS011;3430;51.192;6.048;2022-10-16T08:14:30;1.60;;;1.50;;
6785;SDS011;3430;51.192;6.048;2022-10-16T08:16:55;1.97;;;1.80;;
6785;SDS011;3430;51.192;6.048;2022-10-16T08:19:21;3.27;;;2.27;;
6785;SDS011;3430;51.192;6.048;2022-10-16T08:21:47;1.80;;;1.63;;
6785;SDS011;3430;51.192;6.048;2022-10-16T08:24:12;1.80;;;1.60;;
6785;SDS011;3430;51.192;6.048;2022-10-16T08:26:38;2.07;;;1.80;;
6785;SDS011;3430;51.192;6.048;2022-10-16T08:29:04;2.50;;;1.53;;
6785;SDS011;3430;51.192;6.048;2022-10-16T08:31:38;1.80;;;1.70;;
6785;SDS011;3430;51.192;6.048;2022-10-16T08:34:09;3.30;;;1.60;;
6785;SDS011;3430;51.192;6.048;2022-10-16T08:36:36;2.60;;;1.73;;
6785;SDS011;3430;51.192;6.048;2022-10-16T08:39:05;1.77;;;1.60;;
6785;SDS011;3430;51.192;6.048;2022-10-16T08:41:39;2.33;;;1.80;;
6785;SDS011;3430;51.192;6.048;2022-10-16T08:49:08;2.17;;;1.80;;
6785;SDS011;3430;51.192;6.048;2022-10-16T08:51:38;2.13;;;1.90;;
6785;SDS011;3430;51.192;6.048;2022-10-16T08:54:05;2.43;;;1.70;;
6785;SDS011;3430;51.192;6.048;2022-10-16T08:56:31;1.90;;;1.73;;
6785;SDS011;3430;51.192;6.048;2022-10-16T08:58:58;2.77;;;1.70;;
6785;SDS011;3430;51.192;6.048;2022-10-16T09:01:24;2.37;;;1.70;;
6785;SDS011;3430;51.192;6.048;2022-10-16T09:17:19;3.53;;;1.70;;
6785;SDS011;3430;51.192;6.048;2022-10-16T09:19:38;2.37;;;1.60;;
6785;SDS011;3430;51.192;6.048;2022-10-16T09:22:15;1.67;;;1.57;;
6785;SDS011;3430;51.192;6.048;2022-10-16T09:24:41;1.87;;;1.73;;
6785;SDS011;3430;51.192;6.048;2022-10-16T09:27:13;1.87;;;1.63;;
6785;SDS011;3430;51.192;6.048;2022-10-16T09:29:39;2.03;;;1.60;;
6785;SDS011;3430;51.192;6.048;2022-10-16T09:32:12;2.30;;;1.83;;
6785;SDS011;3430;51.192;6.048;2022-10-16T09:34:41;2.23;;;1.60;;
6785;SDS011;3430;51.192;6.048;2022-10-16T09:37:12;1.60;;;1.50;;
6785;SDS011;3430;51.192;6.048;2022-10-16T09:39:45;1.57;;;1.40;;
6785;SDS011;3430;51.192;6.048;2022-10-16T09:42:14;1.80;;;1.60;;
6785;SDS011;3430;51.192;6.048;2022-10-16T09:44:39;1.60;;;1.50;;
6785;SDS011;3430;51.192;6.048;2022-10-16T09:47:13;1.77;;;1.50;;
6785;SDS011;3430;51.192;6.048;2022-10-16T09:49:49;4.87;;;1.70;;
6785;SDS011;3430;51.192;6.048;2022-10-16T09:52:15;1.60;;;1.50;;
6785;SDS011;3430;51.192;6.048;2022-10-16T09:54:57;1.90;;;1.40;;
6785;SDS011;3430;51.192;6.048;2022-10-16T09:57:23;2.20;;;1.47;;
6785;SDS011;3430;51.192;6.048;2022-10-16T09:59:50;2.93;;;1.40;;
6785;SDS011;3430;51.192;6.048;2022-10-16T10:02:29;8.37;;;1.90;;
6785;SDS011;3430;51.192;6.048;2022-10-16T10:04:55;9.80;;;2.20;;
6785;SDS011;3430;51.192;6.048;2022-10-16T10:07:25;2.00;;;1.63;;
6785;SDS011;3430;51.192;6.048;2022-10-16T10:09:51;2.60;;;1.57;;
6785;SDS011;3430;51.192;6.048;2022-10-16T10:12:24;1.30;;;1.20;;
6785;SDS011;3430;51.192;6.048;2022-10-16T10:14:53;1.93;;;1.70;;
6785;SDS011;3430;51.192;6.048;2022-10-16T10:17:26;1.50;;;1.40;;
6785;SDS011;3430;51.192;6.048;2022-10-16T10:20:15;4.83;;;1.80;;
6785;SDS011;3430;51.192;6.048;2022-10-16T10:22:42;1.90;;;1.30;;
6785;SDS011;3430;51.192;6.048;2022-10-16T10:30:09;3.20;;;1.80;;
6785;SDS011;3430;51.192;6.048;2022-10-16T10:32:43;3.87;;;1.60;;
6785;SDS011;3430;51.192;6.048;2022-10-16T10:35:14;1.83;;;1.73;;
6785;SDS011;3430;51.192;6.048;2022-10-16T10:40:22;2.23;;;1.40;;
6785;SDS011;3430;51.192;6.048;2022-10-16T10:42:53;1.50;;;1.40;;
6785;SDS011;3430;51.192;6.048;2022-10-16T10:45:31;2.40;;;1.43;;
6785;SDS011;3430;51.192;6.048;2022-10-16T10:50:53;2.00;;;1.50;;
6785;SDS011;3430;51.192;6.048;2022-10-16T10:53:29;1.77;;;1.60;;
6785;SDS011;3430;51.192;6.048;2022-10-16T11:01:08;1.53;;;1.43;;
6785;SDS011;3430;51.192;6.048;2022-10-16T11:08:55;1.53;;;1.40;;
6785;SDS011;3430;51.192;6.048;2022-10-16T11:17:02;2.07;;;1.40;;
6785;SDS011;3430;51.192;6.048;2022-10-16T11:19:33;2.10;;;1.40;;
6785;SDS011;3430;51.192;6.048;2022-10-16T11:22:12;1.87;;;1.50;;
6785;SDS011;3430;51.192;6.048;2022-10-16T11:27:30;1.93;;;1.70;;
6785;SDS011;3430;51.192;6.048;2022-10-16T11:29:59;1.63;;;1.47;;
6785;SDS011;3430;51.192;6.048;2022-10-16T11:32:28;3.40;;;1.40;;
6785;SDS011;3430;51.192;6.048;2022-10-16T11:35:00;2.23;;;2.13;;
6785;SDS011;3430;51.192;6.048;2022-10-16T11:37:32;2.17;;;1.50;;
6785;SDS011;3430;51.192;6.048;2022-10-16T11:40:11;1.50;;;1.40;;
6785;SDS011;3430;51.192;6.048;2022-10-16T11:42:42;3.17;;;1.70;;
6785;SDS011;3430;51.192;6.048;2022-10-16T11:45:22;1.90;;;1.47;;
6785;SDS011;3430;51.192;6.048;2022-10-16T11:50:25;2.47;;;1.50;;
6785;SDS011;3430;51.192;6.048;2022-10-16T11:53:09;1.97;;;1.67;;
6785;SDS011;3430;51.192;6.048;2022-10-16T11:55:39;1.90;;;1.40;;
6785;SDS011;3430;51.192;6.048;2022-10-16T12:08:20;2.17;;;1.50;;
6785;SDS011;3430;51.192;6.048;2022-10-16T12:10:47;1.83;;;1.50;;
6785;SDS011;3430;51.192;6.048;2022-10-16T12:16:03;1.40;;;1.30;;
6785;SDS011;3430;51.192;6.048;2022-10-16T12:18:29;1.67;;;1.57;;
6785;SDS011;3430;51.192;6.048;2022-10-16T12:20:55;1.60;;;1.50;;
6785;SDS011;3430;51.192;6.048;2022-10-16T12:23:24;2.23;;;1.60;;
6785;SDS011;3430;51.192;6.048;2022-10-16T12:25:57;2.47;;;1.70;;
6785;SDS011;3430;51.192;6.048;2022-10-16T12:28:26;2.67;;;1.40;;
6785;SDS011;3430;51.192;6.048;2022-10-16T12:31:01;1.50;;;1.40;;
6785;SDS011;3430;51.192;6.048;2022-10-16T12:35:55;1.50;;;1.40;;
6785;SDS011;3430;51.192;6.048;2022-10-16T12:38:36;1.67;;;1.57;;
6785;SDS011;3430;51.192;6.048;2022-10-16T12:41:04;1.53;;;1.43;;
6785;SDS011;3430;51.192;6.048;2022-10-16T12:46:20;2.57;;;1.57;;
6785;SDS011;3430;51.192;6.048;2022-10-16T12:48:46;1.60;;;1.50;;
6785;SDS011;3430;51.192;6.048;2022-10-16T12:51:24;1.50;;;1.40;;
6785;SDS011;3430;51.192;6.048;2022-10-16T12:54:03;1.87;;;1.60;;
6785;SDS011;3430;51.192;6.048;2022-10-16T12:59:01;2.47;;;2.13;;
6785;SDS011;3430;51.192;6.048;2022-10-16T13:06:33;1.50;;;1.40;;
6785;SDS011;3430;51.192;6.048;2022-10-16T13:11:56;1.43;;;1.30;;
6785;SDS011;3430;51.192;6.048;2022-10-16T13:17:24;1.40;;;1.30;;
6785;SDS011;3430;51.192;6.048;2022-10-16T13:22:33;3.00;;;1.60;;
6785;SDS011;3430;51.192;6.048;2022-10-16T13:25:12;1.83;;;1.50;;
6785;SDS011;3430;51.192;6.048;2022-10-16T13:30:16;2.03;;;1.70;;
6785;SDS011;3430;51.192;6.048;2022-10-16T13:32:46;2.80;;;1.50;;
6785;SDS011;3430;51.192;6.048;2022-10-16T13:35:20;1.63;;;1.20;;
6785;SDS011;3430;51.192;6.048;2022-10-16T13:37:48;1.50;;;1.40;;
6785;SDS011;3430;51.192;6.048;2022-10-16T13:43:03;1.47;;;1.37;;
6785;SDS011;3430;51.192;6.048;2022-10-16T13:45:28;1.43;;;1.33;;
6785;SDS011;3430;51.192;6.048;2022-10-16T13:48:01;1.50;;;1.40;;
6785;SDS011;3430;51.192;6.048;2022-10-16T13:50:26;2.37;;;1.60;;
6785;SDS011;3430;51.192;6.048;2022-10-16T13:52:52;1.70;;;1.60;;
6785;SDS011;3430;51.192;6.048;2022-10-16T13:55:28;1.63;;;1.40;;
6785;SDS011;3430;51.192;6.048;2022-10-16T13:57:53;2.17;;;1.40;;
6785;SDS011;3430;51.192;6.048;2022-10-16T14:00:29;1.67;;;1.57;;
6785;SDS011;3430;51.192;6.048;2022-10-16T14:02:57;1.50;;;1.40;;
6785;SDS011;3430;51.192;6.048;2022-10-16T14:05:23;3.37;;;1.47;;
6785;SDS011;3430;51.192;6.048;2022-10-16T14:07:49;1.40;;;1.30;;
6785;SDS011;3430;51.192;6.048;2022-10-16T14:10:22;1.50;;;1.40;;
6785;SDS011;3430;51.192;6.048;2022-10-16T14:12:59;1.50;;;1.40;;
6785;SDS011;3430;51.192;6.048;2022-10-16T14:15:29;1.50;;;1.40;;
6785;SDS011;3430;51.192;6.048;2022-10-16T14:17:55;2.27;;;1.50;;
6785;SDS011;3430;51.192;6.048;2022-10-16T14:20:23;1.80;;;1.50;;
6785;SDS011;3430;51.192;6.048;2022-10-16T14:22:57;2.40;;;1.43;;
6785;SDS011;3430;51.192;6.048;2022-10-16T14:25:27;1.60;;;1.50;;
6785;SDS011;3430;51.192;6.048;2022-10-16T14:28:04;1.97;;;1.40;;
6785;SDS011;3430;51.192;6.048;2022-10-16T14:30:31;1.67;;;1.30;;
6785;SDS011;3430;51.192;6.048;2022-10-16T14:32:58;2.77;;;1.40;;
6785;SDS011;3430;51.192;6.048;2022-10-16T14:35:25;2.33;;;1.50;;
6785;SDS011;3430;51.192;6.048;2022-10-16T14:37:52;1.40;;;1.30;;
6785;SDS011;3430;51.192;6.048;2022-10-16T14:40:18;1.87;;;1.60;;
6785;SDS011;3430;51.192;6.048;2022-10-16T14:42:44;2.50;;;1.40;;
6785;SDS011;3430;51.192;6.048;2022-10-16T14:45:10;1.50;;;1.40;;
6785;SDS011;3430;51.192;6.048;2022-10-16T14:47:36;1.50;;;1.40;;
6785;SDS011;3430;51.192;6.048;2022-10-16T14:50:04;1.50;;;1.40;;
6785;SDS011;3430;51.192;6.048;2022-10-16T14:52:30;1.70;;;1.50;;
6785;SDS011;3430;51.192;6.048;2022-10-16T14:54:55;1.50;;;1.40;;
6785;SDS011;3430;51.192;6.048;2022-10-16T14:57:25;1.70;;;1.60;;
6785;SDS011;3430;51.192;6.048;2022-10-16T14:59:54;1.63;;;1.40;;
6785;SDS011;3430;51.192;6.048;2022-10-16T15:04:47;1.30;;;1.20;;
6785;SDS011;3430;51.192;6.048;2022-10-16T15:07:13;1.10;;;1.07;;
6785;SDS011;3430;51.192;6.048;2022-10-16T15:09:38;2.13;;;1.40;;
6785;SDS011;3430;51.192;6.048;2022-10-16T15:12:04;1.33;;;1.20;;
6785;SDS011;3430;51.192;6.048;2022-10-16T15:14:29;1.40;;;1.30;;
6785;SDS011;3430;51.192;6.048;2022-10-16T15:16:55;1.30;;;1.20;;
6785;SDS011;3430;51.192;6.048;2022-10-16T15:19:20;1.30;;;1.20;;
6785;SDS011;3430;51.192;6.048;2022-10-16T15:21:45;1.43;;;1.33;;
6785;SDS011;3430;51.192;6.048;2022-10-16T15:24:12;1.53;;;1.43;;
6785;SDS011;3430;51.192;6.048;2022-10-16T15:26:38;1.40;;;1.30;;
6785;SDS011;3430;51.192;6.048;2022-10-16T15:29:04;3.10;;;1.23;;
6785;SDS011;3430;51.192;6.048;2022-10-16T15:31:30;3.13;;;1.20;;
6785;SDS011;3430;51.192;6.048;2022-10-16T15:33:55;3.23;;;1.20;;
6785;SDS011;3430;51.192;6.048;2022-10-16T15:36:30;1.20;;;1.10;;
6785;SDS011;3430;51.192;6.048;2022-10-16T15:38:55;1.30;;;1.20;;
6785;SDS011;3430;51.192;6.048;2022-10-16T15:41:21;3.30;;;1.20;;
6785;SDS011;3430;51.192;6.048;2022-10-16T15:43:50;2.87;;;1.40;;
6785;SDS011;3430;51.192;6.048;2022-10-16T15:46:17;1.20;;;1.10;;
6785;SDS011;3430;51.192;6.048;2022-10-16T15:48:43;1.20;;;1.10;;
6785;SDS011;3430;51.192;6.048;2022-10-16T15:51:09;1.20;;;1.10;;
6785;SDS011;3430;51.192;6.048;2022-10-16T15:53:34;1.40;;;1.30;;
6785;SDS011;3430;51.192;6.048;2022-10-16T15:56:04;1.20;;;1.10;;
6785;SDS011;3430;51.192;6.048;2022-10-16T15:58:29;2.60;;;1.40;;
6785;SDS011;3430;51.192;6.048;2022-10-16T16:00:58;3.23;;;1.30;;
6785;SDS011;3430;51.192;6.048;2022-10-16T16:03:26;1.20;;;1.10;;
6785;SDS011;3430;51.192;6.048;2022-10-16T16:05:52;1.40;;;1.10;;
6785;SDS011;3430;51.192;6.048;2022-10-16T16:08:17;1.77;;;1.20;;
6785;SDS011;3430;51.192;6.048;2022-10-16T16:10:42;1.73;;;1.30;;
6785;SDS011;3430;51.192;6.048;2022-10-16T16:13:08;1.23;;;1.10;;
6785;SDS011;3430;51.192;6.048;2022-10-16T16:15:34;1.30;;;1.20;;
6785;SDS011;3430;51.192;6.048;2022-10-16T16:17:59;1.10;;;1.10;;
6785;SDS011;3430;51.192;6.048;2022-10-16T16:20:30;2.10;;;1.27;;
6785;SDS011;3430;51.192;6.048;2022-10-16T16:22:56;1.43;;;1.30;;
6785;SDS011;3430;51.192;6.048;2022-10-16T16:25:21;2.73;;;1.30;;
6785;SDS011;3430;51.192;6.048;2022-10-16T16:27:47;1.70;;;1.40;;
6785;SDS011;3430;51.192;6.048;2022-10-16T16:30:13;1.87;;;1.30;;
6785;SDS011;3430;51.192;6.048;2022-10-16T16:32:38;1.83;;;1.30;;
6785;SDS011;3430;51.192;6.048;2022-10-16T16:35:04;1.23;;;1.13;;
6785;SDS011;3430;51.192;6.048;2022-10-16T16:37:29;1.30;;;1.20;;
6785;SDS011;3430;51.192;6.048;2022-10-16T16:40:01;1.37;;;1.27;;
6785;SDS011;3430;51.192;6.048;2022-10-16T16:42:32;1.07;;;1.07;;
6785;SDS011;3430;51.192;6.048;2022-10-16T16:44:57;2.23;;;1.40;;
6785;SDS011;3430;51.192;6.048;2022-10-16T16:47:23;1.23;;;1.13;;
6785;SDS011;3430;51.192;6.048;2022-10-16T16:49:48;1.60;;;1.50;;
6785;SDS011;3430;51.192;6.048;2022-10-16T16:52:14;2.20;;;1.37;;
6785;SDS011;3430;51.192;6.048;2022-10-16T16:54:40;1.47;;;1.20;;
6785;SDS011;3430;51.192;6.048;2022-10-16T16:57:05;1.50;;;1.40;;
6785;SDS011;3430;51.192;6.048;2022-10-16T16:59:34;1.53;;;1.30;;
6785;SDS011;3430;51.192;6.048;2022-10-16T17:01:59;1.53;;;1.43;;
6785;SDS011;3430;51.192;6.048;2022-10-16T17:04:25;1.30;;;1.20;;
6785;SDS011;3430;51.192;6.048;2022-10-16T17:06:54;3.93;;;1.30;;
6785;SDS011;3430;51.192;6.048;2022-10-16T17:09:22;1.37;;;1.27;;
6785;SDS011;3430;51.192;6.048;2022-10-16T17:11:47;1.60;;;1.50;;